createdAt,value
2019-05-25T00:01:25.338Z,13.70
2019-05-25T00:03:55.212Z,13.80
2019-05-25T00:06:25.966Z,13.70
2019-05-25T00:08:56.970Z,13.70
2019-05-25T00:11:27.048Z,13.70
2019-05-25T00:13:59.038Z,13.70
2019-05-25T00:16:29.602Z,13.60
2019-05-25T00:18:59.412Z,13.60
2019-05-25T00:21:29.242Z,13.60
2019-05-25T00:24:11.219Z,13.60
2019-05-25T00:26:30.917Z,13.60
2019-05-25T00:29:00.753Z,13.60
2019-05-25T00:31:31.842Z,13.60
2019-05-25T00:34:03.210Z,13.60
2019-05-25T00:36:34.192Z,13.50
2019-05-25T00:39:06.815Z,13.60
2019-05-25T00:41:37.901Z,13.60
2019-05-25T00:44:08.958Z,13.60
2019-05-25T00:46:38.762Z,13.70
2019-05-25T00:49:08.566Z,13.70
2019-05-25T00:51:38.981Z,13.70
2019-05-25T00:54:08.789Z,13.70
2019-05-25T00:56:38.909Z,13.70
2019-05-25T00:59:08.971Z,13.70
2019-05-25T01:01:38.774Z,13.80
2019-05-25T01:04:08.971Z,13.80
2019-05-25T01:06:38.805Z,13.80
2019-05-25T01:09:08.609Z,13.70
2019-05-25T01:11:39.042Z,13.70
2019-05-25T01:14:10.310Z,13.80
2019-05-25T01:16:41.250Z,13.80
2019-05-25T01:19:11.046Z,13.80
2019-05-25T01:21:41.054Z,13.80
2019-05-25T01:24:10.933Z,13.80
2019-05-25T01:26:40.734Z,13.80
2019-05-25T01:29:10.580Z,13.80
2019-05-25T01:31:41.150Z,13.70
2019-05-25T01:34:12.566Z,13.70
2019-05-25T01:36:43.312Z,13.60
2019-05-25T01:39:13.118Z,13.60
2019-05-25T01:41:43.350Z,13.70
2019-05-25T01:44:13.424Z,13.70
2019-05-25T01:46:43.570Z,13.80
2019-05-25T01:49:13.370Z,13.90
2019-05-25T01:51:43.453Z,13.90
2019-05-25T01:54:13.694Z,13.90
2019-05-25T01:56:43.500Z,14.00
2019-05-25T01:59:15.153Z,14.00
2019-05-25T02:01:45.901Z,13.90
2019-05-25T02:04:17.096Z,13.90
2019-05-25T02:06:50.149Z,13.90
2019-05-25T02:09:20.903Z,13.90
2019-05-25T02:11:52.064Z,13.90
2019-05-25T02:14:23.013Z,13.80
2019-05-25T02:16:53.615Z,13.80
2019-05-25T02:19:23.441Z,13.80
2019-05-25T02:21:53.459Z,13.70
2019-05-25T02:24:23.673Z,13.60
2019-05-25T02:26:53.493Z,13.50
2019-05-25T02:29:23.320Z,13.50
2019-05-25T02:31:53.386Z,13.40
2019-05-25T02:34:23.397Z,13.40
2019-05-25T02:36:53.243Z,13.30
2019-05-25T02:39:23.366Z,13.30
2019-05-25T02:41:53.189Z,13.30
2019-05-25T02:44:23.464Z,13.30
2019-05-25T02:46:53.263Z,13.20
2019-05-25T02:49:23.413Z,13.20
2019-05-25T02:51:55.110Z,13.10
2019-05-25T02:54:25.694Z,13.10
2019-05-25T02:56:55.495Z,13.10
2019-05-25T02:59:25.607Z,13.10
2019-05-25T03:01:56.370Z,13.00
2019-05-25T03:04:27.802Z,13.00
2019-05-25T03:07:00.574Z,13.00
2019-05-25T03:09:32.169Z,13.00
2019-05-25T03:12:02.940Z,12.90
2019-05-25T03:14:35.404Z,12.90
2019-05-25T03:17:06.401Z,12.90
2019-05-25T03:19:37.683Z,12.80
2019-05-25T03:22:08.429Z,12.70
2019-05-25T03:24:38.642Z,12.60
2019-05-25T03:27:08.453Z,12.50
2019-05-25T03:29:38.278Z,12.50
2019-05-25T03:32:08.464Z,12.50
2019-05-25T03:34:38.279Z,12.50
2019-05-25T03:37:08.473Z,12.40
2019-05-25T03:39:38.262Z,12.40
2019-05-25T03:42:08.170Z,12.30
2019-05-25T03:44:57.289Z,12.30
2019-05-25T03:47:27.080Z,12.30
2019-05-25T03:49:58.194Z,12.30
2019-05-25T03:52:29.018Z,12.20
2019-05-25T03:54:58.933Z,12.20
2019-05-25T03:57:29.251Z,12.20
2019-05-25T03:59:59.102Z,12.10
2019-05-25T04:02:29.006Z,12.10
2019-05-25T04:04:58.801Z,12.00
2019-05-25T04:07:28.950Z,12.00
2019-05-25T04:09:59.235Z,12.00
2019-05-25T04:12:29.480Z,12.00
2019-05-25T04:15:00.864Z,12.00
2019-05-25T04:17:31.505Z,11.90
2019-05-25T04:20:01.329Z,11.90
2019-05-25T04:22:31.379Z,11.90
2019-05-25T04:25:01.179Z,11.90
2019-05-25T04:27:30.975Z,11.80
2019-05-25T04:30:00.810Z,11.80
2019-05-25T04:32:31.209Z,11.90
2019-05-25T04:35:00.993Z,11.90
2019-05-25T04:37:30.809Z,11.90
2019-05-25T04:40:01.660Z,11.90
2019-05-25T04:42:31.455Z,11.90
2019-05-25T04:45:01.310Z,11.90
2019-05-25T04:47:31.937Z,11.90
2019-05-25T04:50:03.134Z,11.90
2019-05-25T04:52:34.101Z,11.90
2019-05-25T04:55:06.589Z,12.00
2019-05-25T04:57:36.377Z,12.00
2019-05-25T05:00:08.613Z,12.00
2019-05-25T05:02:41.669Z,12.00
2019-05-25T05:05:12.945Z,12.10
2019-05-25T05:07:44.027Z,12.10
2019-05-25T05:10:16.754Z,12.10
2019-05-25T05:12:48.041Z,12.20
2019-05-25T05:15:18.883Z,12.20
2019-05-25T05:17:48.872Z,12.30
2019-05-25T05:20:18.678Z,12.40
2019-05-25T05:22:50.359Z,12.40
2019-05-25T05:25:21.287Z,12.40
2019-05-25T05:27:51.094Z,12.50
2019-05-25T05:30:32.621Z,12.50
2019-05-25T05:33:04.198Z,12.60
2019-05-25T05:35:38.568Z,12.60
2019-05-25T05:38:06.449Z,12.60
2019-05-25T05:40:37.331Z,12.60
2019-05-25T05:43:11.744Z,12.70
2019-05-25T05:45:42.943Z,12.70
2019-05-25T05:48:13.739Z,12.70
2019-05-25T05:50:46.021Z,12.70
2019-05-25T05:53:16.851Z,12.70
2019-05-25T05:55:46.645Z,12.80
2019-05-25T05:58:17.234Z,12.80
2019-05-25T06:00:48.472Z,12.90
2019-05-25T06:03:18.386Z,13.00
2019-05-25T06:05:48.186Z,13.10
2019-05-25T06:08:18.147Z,13.10
2019-05-25T06:10:48.438Z,13.10
2019-05-25T06:13:18.230Z,13.00
2019-05-25T06:15:48.059Z,13.10
2019-05-25T06:18:17.856Z,13.10
2019-05-25T06:20:48.539Z,13.00
2019-05-25T06:23:18.464Z,13.00
2019-05-25T06:25:48.438Z,13.00
2019-05-25T06:28:22.167Z,12.90
2019-05-25T06:30:50.608Z,12.90
2019-05-25T06:33:21.015Z,12.90
2019-05-25T06:35:50.887Z,13.00
2019-05-25T06:38:20.714Z,13.10
2019-05-25T06:40:51.090Z,13.20
2019-05-25T06:43:20.885Z,13.40
2019-05-25T06:45:50.786Z,13.50
2019-05-25T06:48:20.888Z,13.60
2019-05-25T06:50:50.749Z,13.60
2019-05-25T06:53:20.650Z,13.70
2019-05-25T06:55:50.772Z,13.70
2019-05-25T06:58:20.637Z,13.80
2019-05-25T07:00:50.564Z,13.80
2019-05-25T07:03:21.125Z,13.90
2019-05-25T07:05:50.990Z,14.00
2019-05-25T07:08:20.886Z,14.10
2019-05-25T07:10:51.018Z,14.10
2019-05-25T07:13:20.883Z,14.20
2019-05-25T07:15:53.042Z,14.40
2019-05-25T07:18:23.333Z,14.50
2019-05-25T07:20:53.382Z,14.60
2019-05-25T07:23:23.703Z,14.70
2019-05-25T07:25:53.522Z,14.80
2019-05-25T07:28:23.309Z,14.90
2019-05-25T07:30:53.489Z,15.10
2019-05-25T07:33:23.281Z,15.20
2019-05-25T07:35:53.334Z,15.30
2019-05-25T07:38:42.655Z,15.50
2019-05-25T07:41:12.750Z,15.60
2019-05-25T07:43:43.972Z,15.80
2019-05-25T07:46:16.940Z,15.80
2019-05-25T07:48:45.219Z,16.00
2019-05-25T07:51:16.361Z,16.30
2019-05-25T07:53:46.342Z,16.50
2019-05-25T07:56:16.142Z,16.60
2019-05-25T07:58:46.714Z,16.80
2019-05-25T08:01:16.769Z,17.10
2019-05-25T08:03:46.599Z,17.10
2019-05-25T08:06:16.600Z,17.10
2019-05-25T08:08:46.434Z,17.00
2019-05-25T08:11:16.443Z,16.90
2019-05-25T08:13:46.727Z,16.90
2019-05-25T08:16:16.563Z,16.90
2019-05-25T08:18:46.767Z,17.10
2019-05-25T08:21:16.556Z,17.30
2019-05-25T08:23:46.386Z,17.60
2019-05-25T08:26:16.714Z,17.80
2019-05-25T08:28:46.505Z,17.90
2019-05-25T08:31:16.341Z,17.90
2019-05-25T08:33:46.467Z,17.80
2019-05-25T08:36:16.258Z,17.60
2019-05-25T08:38:46.554Z,17.50
2019-05-25T08:41:16.547Z,17.40
2019-05-25T08:46:47.311Z,17.30
2019-05-25T08:49:17.697Z,17.40
2019-05-25T08:51:49.629Z,17.30
2019-05-25T08:54:25.230Z,17.40
2019-05-25T08:56:56.049Z,17.60
2019-05-25T08:59:26.062Z,17.60
2019-05-25T09:01:58.019Z,17.70
2019-05-25T09:04:28.757Z,17.80
2019-05-25T09:07:00.022Z,17.80
2019-05-25T09:09:30.871Z,17.90
2019-05-25T09:12:03.639Z,18.10
2019-05-25T09:14:33.451Z,18.20
2019-05-25T09:17:03.441Z,18.20
2019-05-25T09:19:34.570Z,18.10
2019-05-25T09:22:06.019Z,18.20
2019-05-25T09:24:36.851Z,18.10
2019-05-25T09:27:06.680Z,18.10
2019-05-25T09:29:36.882Z,18.10
2019-05-25T09:32:07.294Z,18.10
2019-05-25T09:34:37.355Z,18.20
2019-05-25T09:37:07.180Z,18.10
2019-05-25T09:39:37.281Z,18.20
2019-05-25T09:42:07.221Z,18.30
2019-05-25T09:44:37.183Z,18.40
2019-05-25T09:47:09.079Z,18.40
2019-05-25T09:49:39.610Z,18.50
2019-05-25T09:52:09.799Z,18.70
2019-05-25T09:54:39.632Z,18.90
2019-05-25T09:57:10.126Z,19.10
2019-05-25T09:59:40.982Z,19.40
2019-05-25T10:02:11.826Z,19.60
2019-05-25T10:04:41.621Z,19.90
2019-05-25T10:07:11.520Z,20.10
2019-05-25T10:09:41.585Z,20.20
2019-05-25T10:12:11.372Z,20.30
2019-05-25T10:14:41.794Z,20.30
2019-05-25T10:17:11.632Z,20.40
2019-05-25T10:19:42.065Z,20.50
2019-05-25T10:22:11.884Z,20.70
2019-05-25T10:24:42.366Z,20.90
2019-05-25T10:27:12.162Z,21.00
2019-05-25T10:29:41.964Z,21.20
2019-05-25T10:32:12.228Z,21.40
2019-05-25T10:34:42.013Z,21.50
2019-05-25T10:37:11.810Z,21.60
2019-05-25T10:39:41.902Z,22.00
2019-05-25T10:42:13.158Z,22.60
2019-05-25T10:44:43.267Z,23.30
2019-05-25T10:47:13.107Z,23.90
2019-05-25T10:49:43.063Z,24.30
2019-05-25T10:52:12.865Z,24.90
2019-05-25T10:54:42.829Z,25.50
2019-05-25T10:57:13.358Z,25.80
2019-05-25T10:59:52.350Z,25.90
2019-05-25T11:02:14.915Z,26.10
2019-05-25T11:04:44.707Z,26.00
2019-05-25T11:07:16.018Z,26.30
2019-05-25T11:09:45.852Z,26.60
2019-05-25T11:12:16.009Z,26.90
2019-05-25T11:14:45.821Z,27.50
2019-05-25T11:17:15.730Z,27.90
2019-05-25T11:19:45.510Z,28.60
2019-05-25T11:22:15.527Z,29.10
2019-05-25T11:24:45.356Z,29.40
2019-05-25T11:27:15.216Z,29.40
2019-05-25T11:29:45.570Z,29.70
2019-05-25T11:32:15.627Z,30.10
2019-05-25T11:34:45.430Z,30.10
2019-05-25T11:37:15.870Z,30.30
2019-05-25T11:39:45.674Z,30.00
2019-05-25T11:42:15.722Z,29.40
2019-05-25T11:44:45.545Z,28.80
2019-05-25T11:47:15.446Z,28.30
2019-05-25T11:49:45.238Z,27.20
2019-05-25T11:52:15.929Z,26.80
2019-05-25T11:54:45.753Z,26.50
2019-05-25T11:57:15.547Z,26.10
2019-05-25T11:59:45.578Z,25.90
2019-05-25T12:02:15.431Z,26.00
2019-05-25T12:04:45.224Z,26.60
2019-05-25T12:07:15.322Z,27.00
2019-05-25T12:09:45.176Z,27.70
2019-05-25T12:12:15.104Z,28.30
2019-05-25T12:14:45.595Z,28.60
2019-05-25T12:17:15.418Z,28.60
2019-05-25T12:19:45.218Z,28.50
2019-05-25T12:22:15.271Z,27.90
2019-05-25T12:24:45.103Z,27.30
2019-05-25T12:27:14.894Z,26.70
2019-05-25T12:29:45.146Z,26.50
2019-05-25T12:32:15.131Z,25.70
2019-05-25T12:34:44.923Z,24.70
2019-05-25T12:37:15.039Z,23.90
2019-05-25T12:39:44.879Z,23.30
2019-05-25T12:42:14.808Z,22.40
2019-05-25T12:44:45.085Z,22.00
2019-05-25T12:47:14.913Z,21.90
2019-05-25T12:49:50.710Z,21.70
2019-05-25T12:52:16.265Z,21.70
2019-05-25T12:54:46.094Z,21.70
2019-05-25T12:57:16.568Z,21.30
2019-05-25T12:59:47.382Z,21.20
2019-05-25T13:02:17.201Z,21.10
2019-05-25T13:04:47.107Z,21.00
2019-05-25T13:07:17.430Z,21.20
2019-05-25T13:09:47.278Z,21.40
2019-05-25T13:12:17.183Z,21.60
2019-05-25T13:14:47.371Z,21.50
2019-05-25T13:17:17.322Z,21.40
2019-05-25T13:19:49.590Z,21.50
2019-05-25T13:22:19.557Z,21.40
2019-05-25T13:24:49.406Z,21.30
2019-05-25T13:27:19.188Z,21.20
2019-05-25T13:29:49.405Z,21.00
2019-05-25T13:32:19.271Z,21.00
2019-05-25T13:34:49.152Z,21.00
2019-05-25T13:37:19.307Z,20.80
2019-05-25T13:39:49.140Z,20.60
2019-05-25T13:42:19.038Z,20.50
2019-05-25T13:44:49.541Z,20.50
2019-05-25T13:47:19.365Z,20.30
2019-05-25T13:49:49.165Z,20.20
2019-05-25T13:52:19.879Z,20.00
2019-05-25T13:54:49.703Z,19.90
2019-05-25T13:57:19.570Z,19.90
2019-05-25T13:59:49.630Z,19.80
2019-05-25T14:02:19.680Z,19.70
2019-05-25T14:04:49.467Z,19.80
2019-05-25T14:07:19.582Z,19.90
2019-05-25T14:09:49.488Z,19.90
2019-05-25T14:12:19.422Z,19.80
2019-05-25T14:14:49.625Z,19.60
2019-05-25T14:17:19.458Z,19.60
2019-05-25T14:19:50.106Z,19.60
2019-05-25T14:22:19.994Z,19.50
2019-05-25T14:24:49.838Z,19.70
2019-05-25T14:27:19.693Z,20.00
2019-05-25T14:29:49.487Z,20.00
2019-05-25T14:32:19.395Z,20.00
2019-05-25T14:34:49.186Z,20.00
2019-05-25T14:37:19.450Z,20.10
2019-05-25T14:39:49.266Z,20.10
2019-05-25T14:42:19.164Z,20.00
2019-05-25T14:44:48.980Z,19.90
2019-05-25T14:47:18.878Z,19.90
2019-05-25T14:49:48.673Z,19.80
2019-05-25T14:52:19.397Z,19.90
2019-05-25T14:54:49.231Z,20.00
2019-05-25T14:57:19.030Z,20.00
2019-05-25T14:59:49.148Z,20.00
2019-05-25T15:02:19.204Z,20.00
2019-05-25T15:04:48.993Z,20.20
2019-05-25T15:07:18.977Z,20.20
2019-05-25T15:09:48.819Z,20.00
2019-05-25T15:12:18.888Z,20.00
2019-05-25T15:14:49.141Z,20.10
2019-05-25T15:17:18.959Z,20.00
2019-05-25T15:19:48.755Z,20.00
2019-05-25T15:22:19.115Z,19.80
2019-05-25T15:24:48.935Z,19.60
2019-05-25T15:27:18.726Z,19.40
2019-05-25T15:29:48.931Z,19.40
2019-05-25T15:32:20.644Z,19.30
2019-05-25T15:34:50.300Z,19.20
2019-05-25T15:37:20.166Z,19.20
2019-05-25T15:39:50.010Z,19.10
2019-05-25T15:42:20.605Z,19.10
2019-05-25T15:44:51.257Z,19.10
2019-05-25T15:47:21.090Z,19.20
2019-05-25T15:49:51.262Z,19.10
2019-05-25T15:52:21.052Z,19.00
2019-05-25T15:54:51.230Z,18.90
2019-05-25T15:57:21.283Z,18.90
2019-05-25T15:59:51.784Z,18.70
2019-05-25T16:02:35.641Z,18.60
2019-05-25T16:04:54.956Z,18.50
2019-05-25T16:07:24.749Z,18.50
2019-05-25T16:09:54.637Z,18.40
2019-05-25T16:12:25.041Z,18.30
2019-05-25T16:14:54.838Z,18.30
2019-05-25T16:17:26.256Z,18.30
2019-05-25T16:19:56.090Z,18.20
2019-05-25T16:22:26.739Z,18.20
2019-05-25T16:24:57.583Z,18.20
2019-05-25T16:27:27.378Z,18.20
2019-05-25T16:29:57.179Z,18.10
2019-05-25T16:32:27.864Z,18.10
2019-05-25T16:34:57.659Z,17.90
2019-05-25T16:37:28.336Z,17.90
2019-05-25T16:39:58.249Z,17.70
2019-05-25T16:42:28.039Z,17.60
2019-05-25T16:44:58.279Z,17.50
2019-05-25T16:47:28.122Z,17.40
2019-05-25T16:49:57.921Z,17.30
2019-05-25T16:52:28.035Z,17.20
2019-05-25T16:54:57.863Z,17.20
2019-05-25T16:57:27.681Z,17.10
2019-05-25T16:59:57.990Z,17.00
2019-05-25T17:02:27.833Z,17.10
2019-05-25T17:04:57.757Z,17.00
2019-05-25T17:07:28.039Z,17.00
2019-05-25T17:09:57.871Z,17.00
2019-05-25T17:12:27.823Z,17.00
2019-05-25T17:14:57.629Z,16.90
2019-05-25T17:17:27.460Z,16.90
2019-05-25T17:19:57.253Z,16.90
2019-05-25T17:22:28.037Z,16.90
2019-05-25T17:24:59.485Z,16.80
2019-05-25T17:27:30.050Z,16.80
2019-05-25T17:30:00.027Z,16.90
2019-05-25T17:32:30.190Z,16.90
2019-05-25T17:35:00.103Z,16.90
2019-05-25T17:37:30.113Z,16.90
2019-05-25T17:39:59.957Z,16.90
2019-05-25T17:42:29.821Z,17.00
2019-05-25T17:44:59.863Z,17.00
2019-05-25T17:47:29.730Z,17.00
2019-05-25T17:49:59.856Z,17.00
2019-05-25T17:52:29.938Z,17.00
2019-05-25T17:54:59.893Z,16.90
2019-05-25T17:57:29.713Z,16.80
2019-05-25T18:00:00.186Z,16.80
2019-05-25T18:02:31.998Z,16.80
2019-05-25T18:05:02.995Z,16.70
2019-05-25T18:07:32.890Z,16.70
2019-05-25T18:10:03.128Z,16.70
2019-05-25T18:12:33.068Z,16.70
2019-05-25T18:15:02.876Z,16.70
2019-05-25T18:17:32.702Z,16.70
2019-05-25T18:20:04.483Z,16.70
2019-05-25T18:22:35.338Z,16.60
2019-05-25T18:25:07.886Z,16.50
2019-05-25T18:27:37.686Z,16.50
2019-05-25T18:30:09.373Z,16.50
2019-05-25T18:32:40.066Z,16.50
2019-05-25T18:35:09.928Z,16.50
2019-05-25T18:37:39.754Z,16.50
2019-05-25T18:40:09.940Z,16.40
2019-05-25T18:42:39.750Z,16.40
2019-05-25T18:45:09.730Z,16.40
2019-05-25T18:47:39.676Z,16.40
2019-05-25T18:50:11.991Z,16.40
2019-05-25T18:52:42.065Z,16.40
2019-05-25T18:55:12.504Z,16.40
2019-05-25T18:57:42.310Z,16.40
2019-05-25T19:00:13.714Z,16.40
2019-05-25T19:02:44.401Z,16.40
2019-05-25T19:05:15.480Z,16.40
2019-05-25T19:07:45.260Z,16.40
2019-05-25T19:10:16.149Z,16.40
2019-05-25T19:12:47.062Z,16.40
2019-05-25T19:15:18.838Z,16.40
2019-05-25T19:17:49.211Z,16.30
2019-05-25T19:20:21.189Z,16.30
2019-05-25T19:22:50.797Z,16.20
2019-05-25T19:25:21.067Z,16.20
2019-05-25T19:27:51.581Z,16.20
2019-05-25T19:30:21.586Z,16.20
2019-05-25T19:32:51.546Z,16.20
2019-05-25T19:35:21.491Z,16.20
2019-05-25T19:37:51.371Z,16.20
2019-05-25T19:40:21.359Z,16.20
2019-05-25T19:42:53.113Z,16.20
2019-05-25T19:45:23.909Z,16.10
2019-05-25T19:47:54.139Z,16.10
2019-05-25T19:50:24.034Z,16.00
2019-05-25T19:52:53.956Z,16.00
2019-05-25T19:55:23.792Z,16.00
2019-05-25T19:57:53.595Z,15.80
2019-05-25T20:00:23.985Z,15.80
2019-05-25T20:02:53.908Z,15.80
2019-05-25T20:05:23.772Z,15.80
2019-05-25T20:07:53.573Z,15.80
2019-05-25T20:10:23.697Z,15.80
2019-05-25T20:12:53.639Z,15.80
2019-05-25T20:15:23.445Z,15.80
2019-05-25T20:17:53.638Z,15.70
2019-05-25T20:20:23.438Z,15.70
2019-05-25T20:22:53.668Z,15.70
2019-05-25T20:25:23.498Z,15.70
2019-05-25T20:27:53.294Z,15.70
2019-05-25T20:30:23.304Z,15.80
2019-05-25T20:32:53.410Z,15.80
2019-05-25T20:35:32.275Z,15.70
2019-05-25T20:37:54.643Z,15.70
2019-05-25T20:40:25.044Z,15.70
2019-05-25T20:42:55.754Z,15.70
2019-05-25T20:45:25.558Z,15.80
2019-05-25T20:47:55.401Z,15.70
2019-05-25T20:50:25.819Z,15.70
2019-05-25T20:52:55.714Z,15.70
2019-05-25T20:55:25.562Z,15.70
2019-05-25T20:57:55.743Z,15.70
2019-05-25T21:00:25.673Z,15.70
2019-05-25T21:03:05.219Z,15.60
2019-05-25T21:05:27.938Z,15.60
2019-05-25T21:07:57.958Z,15.60
2019-05-25T21:10:27.934Z,15.60
2019-05-25T21:13:00.743Z,15.50
2019-05-25T21:15:30.553Z,15.50
2019-05-25T21:18:00.393Z,15.50
2019-05-25T21:20:30.298Z,15.50
2019-05-25T21:23:00.108Z,15.40
2019-05-25T21:25:29.959Z,15.50
2019-05-25T21:28:00.505Z,15.60
2019-05-25T21:30:30.314Z,15.60
2019-05-25T21:33:00.148Z,15.60
2019-05-25T21:35:30.406Z,15.60
2019-05-25T21:38:00.207Z,15.60
2019-05-25T21:40:30.042Z,15.60
2019-05-25T21:43:00.653Z,15.60
2019-05-25T21:45:30.461Z,15.60
2019-05-25T21:48:00.317Z,15.50
2019-05-25T21:50:30.268Z,15.60
2019-05-25T21:53:00.112Z,15.50
2019-05-25T21:55:29.903Z,15.60
2019-05-25T21:58:00.798Z,15.60
2019-05-25T22:00:33.170Z,15.50
2019-05-25T22:03:03.076Z,15.50
2019-05-25T22:05:32.871Z,15.60
2019-05-25T22:08:02.743Z,15.60
2019-05-25T22:10:32.586Z,15.60
2019-05-25T22:13:02.493Z,15.60
2019-05-25T22:15:32.436Z,15.60
2019-05-25T22:18:02.306Z,15.70
2019-05-25T22:20:32.479Z,15.70
2019-05-25T22:23:02.769Z,15.70
2019-05-25T22:25:36.327Z,15.70
2019-05-25T22:28:06.133Z,15.70
2019-05-25T22:30:36.862Z,15.70
2019-05-25T22:33:07.774Z,15.80
2019-05-25T22:35:37.571Z,15.80
2019-05-25T22:38:07.407Z,15.80
2019-05-25T22:40:37.570Z,15.80
2019-05-25T22:43:07.546Z,15.80
2019-05-25T22:45:37.682Z,15.80
2019-05-25T22:48:07.514Z,15.80
2019-05-25T22:50:37.321Z,15.80
2019-05-25T22:53:07.699Z,15.80
2019-05-25T22:55:37.481Z,15.80
2019-05-25T22:58:07.282Z,15.80
2019-05-25T23:00:37.592Z,15.80
2019-05-25T23:03:07.428Z,15.80
2019-05-25T23:05:37.219Z,15.80
2019-05-25T23:08:07.633Z,15.80
2019-05-25T23:10:37.468Z,15.80
2019-05-25T23:13:07.275Z,15.80
2019-05-25T23:15:37.613Z,15.80
2019-05-25T23:18:07.437Z,15.70
2019-05-25T23:20:37.330Z,15.70
2019-05-25T23:23:07.358Z,15.70
2019-05-25T23:25:37.261Z,15.70
2019-05-25T23:28:07.097Z,15.70
2019-05-25T23:30:36.947Z,15.70
2019-05-25T23:33:06.775Z,15.60
2019-05-25T23:35:37.393Z,15.60
2019-05-25T23:38:07.196Z,15.60
2019-05-25T23:40:37.037Z,15.50
2019-05-25T23:43:07.381Z,15.60
2019-05-25T23:45:38.081Z,15.60
2019-05-25T23:48:07.945Z,15.60
2019-05-25T23:50:38.158Z,15.60
2019-05-25T23:53:07.953Z,15.60
2019-05-25T23:55:37.828Z,15.60
2019-05-25T23:58:08.085Z,15.60
